createdAt,value
2022-12-16T00:00:41.566Z,100307.34
2022-12-16T00:01:43.633Z,100313.35
2022-12-16T00:02:45.612Z,100309.97
2022-12-16T00:03:51.837Z,100311.61
2022-12-16T00:04:54.114Z,100319.41
2022-12-16T00:05:56.119Z,100312.50
2022-12-16T00:06:58.338Z,100321.15
2022-12-16T00:08:00.216Z,100316.81
2022-12-16T00:09:02.437Z,100319.47
2022-12-16T00:10:06.229Z,100316.83
2022-12-16T00:11:09.058Z,100318.55
2022-12-16T00:12:10.947Z,100321.15
2022-12-16T00:13:12.820Z,100321.17
2022-12-16T00:14:15.324Z,100326.38
2022-12-16T00:15:17.208Z,100328.14
2022-12-16T00:16:20.959Z,100319.50
2022-12-16T00:17:23.358Z,100333.36
2022-12-16T00:18:25.648Z,100336.86
2022-12-16T00:19:27.548Z,100329.06
2022-12-16T00:20:29.693Z,100329.92
2022-12-16T00:21:31.716Z,100333.38
2022-12-16T00:22:33.607Z,100329.09
2022-12-16T00:23:37.672Z,100331.72
2022-12-16T00:24:39.625Z,100335.19
2022-12-16T00:25:43.539Z,100336.95
2022-12-16T00:26:45.660Z,100340.42
2022-12-16T00:27:47.548Z,100332.64
2022-12-16T00:28:49.742Z,100323.95
2022-12-16T00:29:54.716Z,100326.56
2022-12-16T00:30:58.978Z,100326.56
2022-12-16T00:32:01.085Z,100322.25
2022-12-16T00:33:04.187Z,100332.64
2022-12-16T00:34:06.227Z,100327.45
2022-12-16T00:35:08.800Z,100326.58
2022-12-16T00:36:13.654Z,100327.47
2022-12-16T00:37:15.586Z,100333.52
2022-12-16T00:38:18.102Z,100330.91
2022-12-16T00:39:20.109Z,100325.71
2022-12-16T00:40:22.488Z,100327.45
2022-12-16T00:41:24.390Z,100332.65
2022-12-16T00:42:26.253Z,100327.45
2022-12-16T00:43:28.288Z,100322.26
2022-12-16T00:44:30.244Z,100325.70
2022-12-16T00:45:32.330Z,100323.95
2022-12-16T00:46:34.530Z,100330.05
2022-12-16T00:47:42.528Z,100328.31
2022-12-16T00:48:43.306Z,100323.95
2022-12-16T00:49:45.201Z,100324.85
2022-12-16T00:50:50.146Z,100326.55
2022-12-16T00:51:58.864Z,100326.56
2022-12-16T00:53:01.325Z,100323.97
2022-12-16T00:54:03.455Z,100330.90
2022-12-16T00:55:07.846Z,100337.84
2022-12-16T00:56:13.792Z,100326.56
2022-12-16T00:57:15.711Z,100329.15
2022-12-16T00:58:19.032Z,100329.98
2022-12-16T00:59:21.176Z,100326.55
2022-12-16T01:00:23.913Z,100331.72
2022-12-16T01:01:25.882Z,100329.97
2022-12-16T01:02:28.092Z,100332.55
2022-12-16T01:03:30.785Z,100330.80
2022-12-16T01:04:32.797Z,100331.70
2022-12-16T01:05:37.648Z,100340.38
2022-12-16T01:06:39.773Z,100335.19
2022-12-16T01:07:42.949Z,100330.88
2022-12-16T01:08:44.985Z,100331.75
2022-12-16T01:09:46.868Z,100336.95
2022-12-16T01:10:55.341Z,100331.75
2022-12-16T01:11:57.980Z,100328.30
2022-12-16T01:13:00.816Z,100322.27
2022-12-16T01:14:02.882Z,100328.31
2022-12-16T01:15:06.632Z,100328.31
2022-12-16T01:16:09.657Z,100323.12
2022-12-16T01:17:11.629Z,100326.57
2022-12-16T01:18:14.848Z,100332.66
2022-12-16T01:19:16.844Z,100331.81
2022-12-16T01:20:18.925Z,100331.83
2022-12-16T01:21:20.796Z,100337.02
2022-12-16T01:22:23.487Z,100343.05
2022-12-16T01:23:25.388Z,100343.92
2022-12-16T01:24:27.270Z,100344.83
2022-12-16T01:25:29.445Z,100348.27
2022-12-16T01:26:31.556Z,100352.61
2022-12-16T01:27:33.425Z,100356.06
2022-12-16T01:28:35.410Z,100358.66
2022-12-16T01:29:37.481Z,100357.80
2022-12-16T01:30:40.264Z,100368.19
2022-12-16T01:31:42.181Z,100355.21
2022-12-16T01:32:44.253Z,100352.61
2022-12-16T01:33:47.071Z,100349.17
2022-12-16T01:34:55.188Z,100354.36
2022-12-16T01:36:00.851Z,100352.61
2022-12-16T01:37:02.893Z,100362.14
2022-12-16T01:38:05.883Z,100368.19
2022-12-16T01:39:10.532Z,100366.45
2022-12-16T01:40:19.624Z,100370.78
2022-12-16T01:41:21.844Z,100372.52
2022-12-16T01:42:23.949Z,100371.64
2022-12-16T01:43:36.006Z,100369.93
2022-12-16T01:44:40.327Z,100376.88
2022-12-16T01:45:43.019Z,100382.06
2022-12-16T01:46:51.698Z,100375.13
2022-12-16T01:47:57.969Z,100370.78
2022-12-16T01:49:03.647Z,100370.78
2022-12-16T01:50:12.493Z,100387.25
2022-12-16T01:51:24.170Z,100384.66
2022-12-16T01:52:32.558Z,100386.36
2022-12-16T01:53:37.164Z,100385.51
2022-12-16T01:54:49.177Z,100393.30
2022-12-16T01:55:54.057Z,100393.30
2022-12-16T01:57:02.778Z,100398.48
2022-12-16T01:59:18.336Z,100388.05
2022-12-16T02:00:20.699Z,100395.89
2022-12-16T02:01:23.221Z,100394.18
2022-12-16T02:02:25.819Z,100401.08
2022-12-16T06:07:35.544Z,100486.74
2022-12-16T06:08:38.487Z,100490.20
2022-12-16T06:09:40.424Z,100492.77
2022-12-16T06:10:42.428Z,100490.17
2022-12-16T06:11:44.403Z,100495.37
2022-12-16T06:12:49.235Z,100497.13
2022-12-16T06:13:51.176Z,100491.06
2022-12-16T06:14:53.268Z,100488.47
2022-12-16T06:15:55.851Z,100492.81
2022-12-16T06:16:58.915Z,100500.61
2022-12-16T06:18:00.846Z,100507.52
2022-12-16T06:19:03.828Z,100502.31
2022-12-16T06:20:08.511Z,100506.66
2022-12-16T06:21:10.530Z,100504.91
2022-12-16T06:22:12.615Z,100504.06
2022-12-16T06:23:15.117Z,100503.17
2022-12-16T06:24:17.177Z,100505.77
2022-12-16T06:25:19.099Z,100501.42
2022-12-16T06:26:21.278Z,100501.42
2022-12-16T06:27:23.296Z,100504.91
2022-12-16T06:28:25.805Z,100506.62
2022-12-16T06:29:27.703Z,100506.62
2022-12-16T06:30:29.683Z,100516.16
2022-12-16T06:31:32.033Z,100502.28
2022-12-16T06:32:34.285Z,100512.67
2022-12-16T06:33:36.163Z,100506.62
2022-12-16T06:34:38.044Z,100509.22
2022-12-16T06:35:40.410Z,100511.81
2022-12-16T06:36:42.713Z,100511.81
2022-12-16T06:37:47.765Z,100511.81
2022-12-16T06:38:49.911Z,100511.81
2022-12-16T06:39:53.228Z,100510.08
2022-12-16T06:40:55.826Z,100508.36
2022-12-16T06:41:57.985Z,100508.36
2022-12-16T06:43:00.259Z,100512.67
2022-12-16T06:44:02.173Z,100513.56
2022-12-16T06:45:05.360Z,100509.22
2022-12-16T06:46:07.749Z,100506.62
2022-12-16T06:47:09.819Z,100501.42
2022-12-16T06:48:12.021Z,100498.83
2022-12-16T06:49:13.897Z,100497.08
2022-12-16T06:50:16.191Z,100504.87
2022-12-16T06:51:18.081Z,100506.61
2022-12-16T06:52:19.948Z,100505.76
2022-12-16T06:53:24.159Z,100504.86
2022-12-16T06:54:26.064Z,100508.32
2022-12-16T06:55:28.724Z,100509.21
2022-12-16T06:56:30.765Z,100511.81
2022-12-16T06:57:32.637Z,100518.72
2022-12-16T06:58:34.514Z,100511.80
2022-12-16T06:59:36.651Z,100521.35
2022-12-16T07:00:38.682Z,100523.05
2022-12-16T07:01:41.566Z,100519.61
2022-12-16T07:03:56.901Z,100513.52
2022-12-16T07:05:00.415Z,100517.00
2022-12-16T07:06:02.769Z,100514.41
2022-12-16T07:07:04.657Z,100525.66
2022-12-16T07:08:06.525Z,100523.91
2022-12-16T07:09:08.574Z,100529.98
2022-12-16T07:10:10.875Z,100529.11
2022-12-16T07:11:16.892Z,100534.30
2022-12-16T07:12:16.926Z,100542.10
2022-12-16T07:13:18.948Z,100535.15
2022-12-16T15:51:21.944Z,100012.03
2022-12-16T15:52:33.490Z,100010.45
2022-12-16T15:53:37.342Z,100003.55
2022-12-16T15:54:51.106Z,100000.02
2022-12-16T15:55:59.485Z,99993.98
2022-12-16T15:57:01.094Z,99993.17
2022-12-16T15:58:05.035Z,99989.67
2022-12-16T15:59:22.580Z,99992.30
2022-12-16T16:00:28.128Z,100000.98
2022-12-16T16:01:33.890Z,100004.42
2022-12-16T16:02:36.123Z,100000.98
2022-12-16T16:03:45.142Z,100000.11
2022-12-16T16:04:48.049Z,100001.81
2022-12-16T16:05:50.148Z,99994.86
2022-12-16T16:06:52.715Z,100000.92
2022-12-16T16:07:56.846Z,100001.81
2022-12-16T16:09:03.446Z,100002.66
2022-12-16T16:11:20.750Z,99997.28
2022-12-16T16:12:25.173Z,99989.62
2022-12-16T16:13:27.411Z,99993.11
2022-12-16T16:14:29.309Z,99983.57
2022-12-16T16:15:31.285Z,99981.81
2022-12-16T16:16:33.807Z,99976.58
2022-12-16T18:47:06.258Z,99860.11
2022-12-16T18:49:18.547Z,99852.23
2022-12-16T18:50:27.222Z,99860.25
2022-12-16T18:51:24.560Z,99863.73
2022-12-16T18:52:27.149Z,99863.70
2022-12-16T18:53:29.825Z,99872.34
2022-12-16T18:54:31.705Z,99871.49
2022-12-16T18:55:33.831Z,99869.77
2022-12-16T18:56:37.315Z,99870.53
2022-12-16T18:57:40.022Z,99880.13
2022-12-16T18:58:51.257Z,99874.92
2022-12-16T18:59:45.952Z,99866.22
2022-12-16T19:00:47.968Z,99861.92
2022-12-16T19:01:50.485Z,99861.95
2022-12-16T19:02:52.885Z,99853.25
2022-12-16T19:03:56.510Z,99850.59
2022-12-16T19:05:00.871Z,99847.02
2022-12-16T19:06:03.155Z,99849.68
2022-12-16T19:07:05.046Z,99852.23
2022-12-16T19:08:11.219Z,99853.11
2022-12-16T19:09:11.195Z,99846.92
2022-12-16T19:10:13.638Z,99838.34
2022-12-16T19:11:15.515Z,99842.71
2022-12-16T19:12:17.424Z,99836.59
2022-12-16T19:13:19.303Z,99836.53
2022-12-16T19:14:21.188Z,99837.44
2022-12-16T19:15:23.507Z,99839.14
2022-12-16T19:16:25.965Z,99834.89
2022-12-16T19:17:28.102Z,99835.72
2022-12-16T19:18:30.120Z,99832.26
2022-12-16T19:19:32.134Z,99832.26
2022-12-16T19:20:34.111Z,99833.98
2022-12-16T19:21:36.012Z,99833.95
2022-12-16T19:22:37.965Z,99843.47
2022-12-16T19:23:40.652Z,99841.77
2022-12-16T19:24:42.853Z,99834.86
2022-12-16T19:25:44.924Z,99838.26
2022-12-16T19:26:47.565Z,99848.63
2022-12-16T19:27:49.776Z,99845.14
2022-12-16T19:28:51.739Z,99838.26
2022-12-16T19:29:54.735Z,99848.63
2022-12-16T19:30:58.403Z,99843.44
2022-12-16T19:32:01.895Z,99842.59
2022-12-16T19:33:03.929Z,99840.87
2022-12-16T19:34:08.790Z,99844.26
2022-12-16T19:35:11.535Z,99834.77
2022-12-16T19:36:13.504Z,99831.32
2022-12-16T19:37:15.393Z,99838.20
2022-12-16T19:38:17.271Z,99842.53
2022-12-16T19:39:19.256Z,99847.75
2022-12-16T19:40:21.352Z,99848.63
2022-12-16T19:41:23.533Z,99848.63
2022-12-16T19:42:25.603Z,99838.26
2022-12-16T19:43:27.490Z,99839.05
2022-12-16T19:44:30.797Z,99838.98
2022-12-16T19:45:32.778Z,99839.92
2022-12-16T19:46:35.350Z,99847.69
2022-12-16T19:47:37.340Z,99845.14
2022-12-16T19:48:40.066Z,99844.20
2022-12-16T19:49:44.452Z,99846.86
2022-12-16T19:50:46.467Z,99851.23
2022-12-16T19:51:49.635Z,99859.08
2022-12-16T19:52:51.732Z,99852.11
2022-12-16T19:53:53.648Z,99856.45
2022-12-16T19:54:58.476Z,99854.69
2022-12-16T19:56:00.592Z,99855.50
2022-12-16T19:57:02.886Z,99856.35
2022-12-16T19:58:05.522Z,99852.02
2022-12-16T19:59:07.435Z,99857.20
2022-12-16T20:00:11.951Z,99867.56
2022-12-16T20:01:14.510Z,99860.59
2022-12-16T20:02:17.022Z,99867.56
2022-12-16T20:03:19.516Z,99863.14
2022-12-16T20:04:21.589Z,99865.78
2022-12-16T20:05:23.669Z,99878.84
2022-12-16T20:06:26.029Z,99870.08
2022-12-16T20:07:28.171Z,99867.54
2022-12-16T20:08:30.468Z,99870.11
2022-12-16T20:09:32.383Z,99862.30
2022-12-16T20:10:36.153Z,99861.41
2022-12-16T20:11:38.785Z,99855.38
2022-12-16T20:12:40.716Z,99849.23
2022-12-16T20:13:42.612Z,99851.05
2022-12-16T20:14:44.967Z,99858.81
2022-12-16T20:15:46.892Z,99857.08
2022-12-16T20:16:48.992Z,99853.56
2022-12-16T20:17:51.736Z,99853.72
2022-12-16T20:18:55.434Z,99850.08
2022-12-16T20:19:58.167Z,99842.31
2022-12-16T20:21:02.752Z,99841.50
2022-12-16T20:22:07.478Z,99844.95
2022-12-16T20:23:08.693Z,99838.08
2022-12-16T20:24:11.539Z,99839.77
2022-12-16T20:25:13.608Z,99844.95
2022-12-16T20:26:15.625Z,99838.86
2022-12-16T20:27:17.761Z,99838.86
2022-12-16T20:28:24.771Z,99834.44
2022-12-16T20:29:23.559Z,99831.83
2022-12-16T20:30:25.686Z,99829.22
2022-12-16T20:31:28.678Z,99831.02
2022-12-16T20:32:30.572Z,99827.52
2022-12-16T20:33:32.783Z,99832.73
2022-12-16T20:34:34.771Z,99833.55
2022-12-16T20:35:36.666Z,99840.44
2022-12-16T20:36:38.785Z,99836.95
2022-12-16T20:37:40.696Z,99831.73
2022-12-16T20:38:42.739Z,99835.25
2022-12-16T20:39:49.519Z,99838.70
2022-12-16T20:41:03.235Z,99836.98
2022-12-16T20:42:05.336Z,99830.03
2022-12-16T20:43:12.060Z,99825.67
2022-12-16T20:44:14.646Z,99819.61
2022-12-16T20:45:18.055Z,99828.25
2022-12-16T20:46:20.220Z,99830.86
2022-12-16T20:47:22.112Z,99837.86
2022-12-16T20:48:24.117Z,99840.41
2022-12-16T20:49:26.068Z,99834.31
2022-12-16T20:50:28.274Z,99832.58
2022-12-16T20:51:30.224Z,99826.52
2022-12-16T20:52:32.109Z,99824.73
2022-12-16T20:53:34.098Z,99810.03
2022-12-16T20:54:36.146Z,99816.00
2022-12-16T20:55:38.637Z,99819.48
2022-12-16T20:56:41.232Z,99820.39
2022-12-16T20:57:44.421Z,99820.39
2022-12-16T20:58:49.783Z,99825.64
2022-12-16T20:59:51.755Z,99826.42
2022-12-16T21:00:56.400Z,99829.94
2022-12-16T21:03:07.732Z,99830.70
2022-12-16T21:04:11.895Z,99822.88
2022-12-16T21:05:14.083Z,99815.18
2022-12-16T21:06:17.557Z,99813.39
2022-12-16T21:07:19.749Z,99825.55
2022-12-16T21:08:21.933Z,99829.88
2022-12-16T21:09:24.355Z,99829.03
2022-12-16T21:10:26.979Z,99829.88
2022-12-16T21:11:29.159Z,99830.70
2022-12-16T21:12:32.916Z,99839.46
2022-12-16T21:13:34.824Z,99851.62
2022-12-16T21:14:36.731Z,99856.77
2022-12-16T21:15:38.806Z,99861.07
2022-12-16T21:16:42.089Z,99850.64
2022-12-16T21:17:44.229Z,99848.92
2022-12-16T21:18:46.306Z,99837.54
2022-12-16T21:19:48.940Z,99834.05
2022-12-16T21:20:53.590Z,99834.15
2022-12-16T21:21:57.529Z,99851.55
2022-12-16T21:23:08.229Z,99850.58
2022-12-16T21:24:10.308Z,99847.91
2022-12-16T21:25:12.296Z,99847.91
2022-12-16T21:26:14.330Z,99851.39
2022-12-16T21:27:16.338Z,99865.34
2022-12-16T21:28:18.220Z,99873.98
2022-12-16T21:29:20.097Z,99871.37
2022-12-16T21:30:22.318Z,99882.62
2022-12-16T21:31:24.317Z,99886.08
2022-12-16T21:32:26.288Z,99878.29
2022-12-16T21:33:28.698Z,99890.48
2022-12-16T21:34:31.234Z,99892.18
2022-12-16T21:35:33.140Z,99896.58
2022-12-16T21:36:35.342Z,99897.39
2022-12-16T21:37:37.214Z,99903.42
2022-12-16T21:38:39.116Z,99906.91
2022-12-16T21:39:41.132Z,99901.67
2022-12-16T21:40:51.104Z,99890.36
2022-12-16T21:41:54.740Z,99875.52
2022-12-16T21:42:58.717Z,99878.95
2022-12-16T21:44:00.611Z,99872.03
2022-12-16T21:45:02.973Z,99868.52
2022-12-16T21:46:05.155Z,99864.24
2022-12-16T21:47:07.031Z,99870.38
2022-12-16T21:48:12.987Z,99873.02
2022-12-16T21:49:17.642Z,99879.86
2022-12-16T21:50:20.011Z,99887.66
2022-12-16T21:51:22.191Z,99889.41
2022-12-16T21:52:24.076Z,99903.30
2022-12-16T21:53:26.051Z,99890.23
2022-12-16T21:54:28.424Z,99874.55
2022-12-16T21:55:30.303Z,99877.22
2022-12-16T21:56:32.491Z,99876.41
2022-12-16T21:57:34.393Z,99871.94
2022-12-16T21:58:36.372Z,99860.69
2022-12-16T21:59:38.342Z,99858.08
2022-12-16T22:00:40.457Z,99849.50
2022-12-16T22:01:42.538Z,99857.36
2022-12-16T22:02:44.690Z,99861.64
2022-12-16T22:03:46.811Z,99860.72
2022-12-16T22:04:48.858Z,99862.48
2022-12-16T22:05:50.729Z,99866.78
2022-12-16T22:06:52.892Z,99862.48
2022-12-16T22:07:56.191Z,99860.66
2022-12-16T22:08:58.288Z,99856.36
2022-12-16T22:10:00.194Z,99858.92
2022-12-16T22:11:13.204Z,99854.56
2022-12-16T22:12:15.240Z,99863.23
2022-12-16T22:13:17.164Z,99865.81
2022-12-16T22:14:19.047Z,99867.41
2022-12-16T22:15:21.299Z,99870.18
2022-12-16T22:16:23.708Z,99875.30
2022-12-16T22:17:25.784Z,99863.23
2022-12-16T22:18:27.813Z,99863.23
2022-12-16T22:19:29.902Z,99867.60
2022-12-16T22:20:34.015Z,99869.27
2022-12-16T22:21:36.027Z,99877.09
2022-12-16T22:22:38.019Z,99876.21
2022-12-16T22:23:40.524Z,99877.88
2022-12-16T22:24:42.880Z,99865.74
2022-12-16T22:25:45.415Z,99863.98
2022-12-16T22:26:47.511Z,99864.02
2022-12-16T22:27:49.391Z,99857.07
2022-12-16T22:28:52.101Z,99850.16
2022-12-16T22:29:54.011Z,99847.58
2022-12-16T22:30:58.188Z,99851.00
2022-12-16T22:32:00.541Z,99847.58
2022-12-16T22:33:02.616Z,99847.58
2022-12-16T22:34:04.524Z,99831.93
2022-12-16T22:35:07.496Z,99838.03
2022-12-16T22:36:10.202Z,99827.53
2022-12-16T22:36:21.729Z,99831.58
2022-12-16T22:37:12.098Z,99827.53
2022-12-16T22:38:13.982Z,99830.14
2022-12-16T22:39:15.911Z,99829.29
2022-12-16T22:40:20.947Z,99825.67
2022-12-16T22:41:22.859Z,99824.92
2022-12-16T22:42:25.259Z,99816.28
2022-12-16T22:43:29.006Z,99809.27
2022-12-16T22:44:30.947Z,99810.05
2022-12-16T22:45:32.836Z,99808.45
2022-12-16T22:46:35.185Z,99814.42
2022-12-16T22:47:37.170Z,99823.19
2022-12-16T22:48:39.319Z,99826.68
2022-12-16T22:49:41.265Z,99838.78
2022-12-16T22:50:43.695Z,99829.22
2022-12-16T22:51:46.329Z,99825.73
2022-12-16T22:52:48.429Z,99835.28
2022-12-16T22:53:50.391Z,99832.75
2022-12-16T22:54:52.284Z,99830.07
2022-12-16T22:56:01.660Z,99837.08
2022-12-16T22:56:59.716Z,99836.13
2022-12-16T22:58:10.658Z,99833.63
2022-12-16T22:59:12.620Z,99823.13
2022-12-16T23:00:16.383Z,99832.71
2022-12-16T23:01:18.298Z,99837.08
2022-12-16T23:02:20.207Z,99847.58
2022-12-16T23:03:23.436Z,99844.06
2022-12-16T23:04:25.354Z,99849.28
2022-12-16T23:05:28.207Z,99832.78
2022-12-16T23:06:30.367Z,99833.59
2022-12-16T23:07:32.256Z,99823.19
2022-12-16T23:08:34.267Z,99822.45
2022-12-16T23:09:37.238Z,99820.62
2022-12-16T23:10:41.337Z,99820.62
2022-12-16T23:11:43.937Z,99821.50
2022-12-16T23:12:45.970Z,99822.38
2022-12-16T23:13:48.159Z,99824.14
2022-12-16T23:14:55.082Z,99826.84
2022-12-16T23:16:00.335Z,99812.05
2022-12-16T23:17:02.923Z,99809.38
2022-12-16T23:18:04.803Z,99809.41
2022-12-16T23:19:06.781Z,99813.70
2022-12-16T23:20:10.286Z,99821.53
2022-12-16T23:21:17.942Z,99811.13
2022-12-16T23:22:19.853Z,99821.50
2022-12-16T23:23:21.737Z,99818.11
2022-12-16T23:24:23.784Z,99831.97
2022-12-16T23:25:25.992Z,99824.14
2022-12-16T23:26:27.986Z,99824.08
2022-12-16T23:27:31.979Z,99830.20
2022-12-16T23:28:34.483Z,99841.45
2022-12-16T23:29:36.466Z,99838.03
2022-12-16T23:30:38.433Z,99849.28
2022-12-16T23:31:40.395Z,99847.61
2022-12-16T23:32:42.408Z,99853.68
2022-12-16T23:33:44.534Z,99854.56
2022-12-16T23:34:46.519Z,99860.59
2022-12-16T23:35:48.605Z,99863.23
2022-12-16T23:36:51.543Z,99865.78
2022-12-16T23:38:04.141Z,99855.34
2022-12-16T23:39:06.278Z,99855.38
2022-12-16T23:40:10.297Z,99850.94
2022-12-16T23:41:12.519Z,99847.42
2022-12-16T23:42:14.396Z,99841.39
2022-12-16T23:43:16.337Z,99854.49
2022-12-16T23:44:18.225Z,99857.17
2022-12-16T23:45:20.133Z,99844.29
2022-12-16T23:46:22.240Z,99851.07
2022-12-16T23:47:24.298Z,99849.31
2022-12-16T23:48:26.842Z,99844.12
2022-12-16T23:49:28.854Z,99841.48
2022-12-16T23:50:30.817Z,99847.55
2022-12-16T23:51:32.722Z,99848.46
2022-12-16T23:52:34.723Z,99856.28
2022-12-16T23:53:37.489Z,99861.53
2022-12-16T23:54:40.998Z,99859.75
2022-12-16T23:55:42.909Z,99847.58
2022-12-16T23:56:45.066Z,99852.73
2022-12-16T23:57:46.934Z,99853.68
2022-12-16T23:58:49.349Z,99858.05
2022-12-16T23:59:51.229Z,99859.75
